香港 の空港の天気 - METARとTAF

香港国際空港 ( VHHH / HKG ) - 香港 赤リョウ角
飛行場実況気象(Metar)
観測時間11/20 17:00 HKT (11/20 09:00 UTC)
風向・風速北 5m/s
視程10km以上
天気現象
少しの雲 雲底高度 760m
全天の4割程度の雲 雲底高度 910m
気温19℃
湿度68%
気圧1018hPa
METARVHHH 200900Z 01009KT 350V050 9999 FEW025 SCT030 19/13 Q1018 NOSIG
過去の天気等 Google飛行場航空写真 Wunderground天気予報

過去48時間のMETAR

飛行場予報(TAF)
発表時間: 11/20 13:00 HKT (11/20 05:00 UTC)
予報対象時間: 20日14時 HKT ~ 21日20時 HKT
風向・風速北北東 5m/s
視程8,000m
少しの雲 雲底高度 460m
全天の4割程度の雲 雲底高度 760m
TAF VHHH 200500Z 2006/2112 03010KT 8000 FEW015 SCT025 TX20/2006Z TX21/2106Z TN16/2022Z